MSC Kim — 3EPZ — position and weather

sailwx.info

Track history (hours):
 
Tides and Currents Weather Stations Pressure Air Temp Water Temp Dewpoint Dewpoint Depression Visibility Wind Speed Wind Dir Waves Ship Positions

MSC Kim

Last reported at 2018-Apr-20 04:57 UTC. Time now 2018-Apr-20 05:05 UTC.
Position N 32°08' W 081°08'.

Length 265 m; draft 8.8 m.

Type: Ship (hazmat cat A). MMSI: 356205000.

Date/timePositionNaut miles runAvg speedWind from/ knotsBaromVisibWave heightAir tempDewpointWater temp
2018-Apr-20 04:57N 32°08' W 081°08'0 0.0
2018-Apr-20 04:27N 32°08' W 081°08'0 0.0
2018-Apr-20 03:57N 32°08' W 081°08'0 0.0
2018-Apr-20 03:27N 32°08' W 081°08'0 0.0
2018-Apr-20 03:00N 32°08' W 081°08'1 1.7
2018-Apr-20 02:30N 32°07' W 081°08'3 6.5
2018-Apr-20 02:00N 32°05' W 081°05'4 8.3
2018-Apr-20 01:30N 32°06' W 081°00'612.4
2018-Apr-20 01:00N 32°02' W 080°54'714.1
2018-Apr-20 00:30N 31°59' W 080°47'612.3
2018-Apr-19 23:59N 31°57' W 080°40'4 9.2
2018-Apr-19 23:31N 31°57' W 080°35'5 9.2
2018-Apr-19 23:00N 31°58' W 080°29'1 1.2
2018-Apr-19 22:11N 31°58' W 080°28'0 0.9
2018-Apr-19 21:57N 31°58' W 080°28'0 0.9
2018-Apr-19 21:27N 31°57' W 080°29'1 1.4
2018-Apr-19 21:01N 31°58' W 080°29'1 2.6
2018-Apr-19 20:30N 31°59' W 080°28'0 0.1
2018-Apr-19 19:59N 31°59' W 080°28'0 0.0
2018-Apr-19 19:29N 31°59' W 080°28'0 0.0
2018-Apr-19 18:59N 31°59' W 080°28'0 0.0
2018-Apr-19 18:29N 31°59' W 080°28'0 0.0
2018-Apr-19 17:53N 31°59' W 080°28'0 0.0
2018-Apr-19 17:23N 31°59' W 080°28'0 0.0
2018-Apr-19 16:59N 31°59' W 080°28'0 0.0
2018-Apr-19 16:29N 31°59' W 080°28'0 0.0
2018-Apr-19 15:11N 31°59' W 080°28'0 0.0
2018-Apr-19 14:59N 31°59' W 080°28'0 0.0
2018-Apr-19 14:23N 31°59' W 080°28'0 0.0
2018-Apr-19 13:59N 31°59' W 080°28'0 0.0
2018-Apr-19 13:23N 31°59' W 080°28'0 0.0
2018-Apr-19 12:53N 31°59' W 080°28'0 0.0
2018-Apr-19 10:53N 31°59' W 080°28'0 0.0
2018-Apr-19 10:17N 31°59' W 080°28'0 0.0
2018-Apr-19 09:53N 31°59' W 080°28'0 0.0
2018-Apr-19 09:29N 31°59' W 080°28'0 0.0
2018-Apr-19 08:47N 31°59' W 080°28'0 0.0
2018-Apr-19 08:29N 31°59' W 080°28'0 0.0
2018-Apr-19 06:47N 31°59' W 080°28'0 0.0
2018-Apr-19 06:29N 31°59' W 080°28'0 0.0
2018-Apr-19 05:59N 31°59' W 080°28'0 0.0
2018-Apr-19 05:29N 31°59' W 080°28'0 0.0
2018-Apr-19 04:53N 31°59' W 080°28'0 0.0
2018-Apr-19 04:29N 31°59' W 080°28'0 0.0
2018-Apr-19 03:59N 31°59' W 080°28'0 0.0
2018-Apr-19 03:29N 31°59' W 080°28'0 0.0
2018-Apr-19 02:47N 31°59' W 080°28'0 0.0
2018-Apr-19 02:23N 31°59' W 080°28'0 0.0
2018-Apr-19 01:59N 31°59' W 080°28'0 0.0
2018-Apr-19 01:29N 31°59' W 080°28'0 0.0
2018-Apr-19 00:53N 31°59' W 080°29'0 0.0
2018-Apr-19 00:29N 31°59' W 080°29'0 0.0
2018-Apr-18 23:53N 31°59' W 080°29'0 0.0
2018-Apr-18 23:17N 31°59' W 080°29'0 0.0
2018-Apr-18 22:53N 31°59' W 080°29'0 0.0
2018-Apr-18 22:29N 31°59' W 080°29'0 0.1
2018-Apr-18 21:59N 31°59' W 080°29'2 3.9
2018-Apr-18 21:30N 31°58' W 080°26'5 9.3
2018-Apr-18 21:00N 31°54' W 080°25'612.2
2018-Apr-18 20:30N 31°48' W 080°24'611.7
2018-Apr-18 20:00N 31°42' W 080°23'0 1.0
2018-Apr-18 19:30N 31°42' W 080°23'1 1.1
2018-Apr-18 19:00N 31°42' W 080°24'1 1.2
2018-Apr-18 18:27N 31°42' W 080°24'1 1.4
2018-Apr-18 18:00N 31°42' W 080°25'1 1.5
2018-Apr-18 17:30N 31°41' W 080°26'1 1.5
2018-Apr-18 17:00N 31°41' W 080°27'1 1.5
2018-Apr-18 16:18N 31°41' W 080°28'0 1.5
2018-Apr-18 16:00N 31°41' W 080°29'1 1.4
2018-Apr-18 15:30N 31°41' W 080°29'1 1.3
2018-Apr-18 15:00N 31°41' W 080°30'1 1.2
2018-Apr-18 14:30N 31°40' W 080°31'1 1.0
2018-Apr-18 13:53N 31°40' W 080°31'1 1.0
2018-Apr-18 13:15N 31°39' W 080°32'2 5.0
2018-Apr-18 12:56N 31°38' W 080°31'4 8.5
2018-Apr-18 12:30N 31°34' W 080°32'5 8.5
2018-Apr-18 11:55N 31°29' W 080°32'4 9.9
2018-Apr-18 11:30N 31°25' W 080°32'510.1
2018-Apr-18 11:00N 31°20' W 080°31'334 7.3
2018-Apr-16 13:28N 25°51' W 079°27'510.7
2018-Apr-16 13:00N 25°46' W 079°29'510.7
2018-Apr-16 12:30N 25°41' W 079°30'610.7
2018-Apr-16 11:56N 25°35' W 079°30'510.9
2018-Apr-16 11:29N 25°30' W 079°31'55011.4
2018-Apr-14 11:15N 22°48' W 089°07'312.6
2018-Apr-14 10:58N 22°47' W 089°11'612.5
2018-Apr-14 10:30N 22°47' W 089°17'712.4
2018-Apr-14 09:59N 22°46' W 089°24'612.2
2018-Apr-14 09:30N 22°45' W 089°30'912.2
2018-Apr-14 08:48N 22°44' W 089°39'512.6
2018-Apr-14 08:22N 22°43' W 089°45'512.6
2018-Apr-14 08:00N 22°42' W 089°50'8512.2
2018-Apr-14 00:59N 22°04' W 091°13'612.4
2018-Apr-14 00:30N 22°01' W 091°18'612.3
2018-Apr-14 00:01N 21°58' W 091°24'612.3
2018-Apr-13 23:30N 21°55' W 091°29'612.3
2018-Apr-13 23:00N 21°51' W 091°35'1112.5
2018-Apr-13 22:07N 21°46' W 091°45'212.6
2018-Apr-13 21:59N 21°45' W 091°47'27212.5
2018-Apr-13 00:12N 19°12' W 095°47'313.3
2018-Apr-13 00:00N 19°12' W 095°49'713.1
2018-Apr-12 23:30N 19°12' W 095°57'612.8
2018-Apr-12 23:00N 19°11' W 096°03'5 9.3
2018-Apr-12 22:30N 19°12' W 096°08'0 0.9
2018-Apr-12 22:00N 19°13' W 096°08'0 0.0
2018-Apr-12 21:30N 19°13' W 096°08'0 0.0
2018-Apr-12 21:00N 19°13' W 096°08'0 0.0
2018-Apr-12 20:30N 19°13' W 096°08'0 0.0
2018-Apr-12 20:00N 19°13' W 096°08'0 0.0
2018-Apr-12 19:30N 19°13' W 096°08'0 0.0
2018-Apr-12 19:00N 19°13' W 096°08'0 0.0
2018-Apr-12 18:30N 19°13' W 096°08'0 0.0
2018-Apr-12 18:00N 19°13' W 096°08'0 0.0
2018-Apr-12 17:30N 19°13' W 096°08'0 0.0
2018-Apr-12 16:56N 19°13' W 096°08'0 0.0
2018-Apr-12 16:30N 19°13' W 096°08'0 0.0
2018-Apr-12 15:54N 19°13' W 096°08'0 0.0
2018-Apr-12 15:30N 19°13' W 096°08'0 0.0
2018-Apr-12 15:00N 19°13' W 096°08'0 0.0
2018-Apr-12 14:30N 19°13' W 096°08'0 0.0
2018-Apr-12 14:00N 19°13' W 096°08'0 0.0
2018-Apr-12 13:30N 19°13' W 096°08'0 0.0
2018-Apr-12 12:57N 19°13' W 096°08'0 0.0
2018-Apr-12 12:30N 19°13' W 096°08'2 3.7
2018-Apr-12 12:00N 19°12' W 096°06'4 8.7
2018-Apr-12 11:30N 19°12' W 096°02'1 2.3
2018-Apr-12 11:00N 19°13' W 096°01'3 6.8
2018-Apr-12 10:30N 19°17' W 095°60'510.2
2018-Apr-12 10:00N 19°22' W 095°60'510.4
2018-Apr-12 09:30N 19°27' W 095°60'510.2
2018-Apr-12 09:00N 19°32' W 096°01'610.4
2018-Apr-12 08:25N 19°38' W 096°04'510.3
2018-Apr-12 07:58N 19°42' W 096°06'  
Track history (hours):
 
Tides and Currents Weather Stations Pressure Air Temp Water Temp Dewpoint Dewpoint Depression Visibility Wind Speed Wind Dir Waves Ship Positions

MSC Kim

Last reported at 2018-Apr-20 04:57 UTC. Time now 2018-Apr-20 05:05 UTC.
Position N 32°08' W 081°08'.

Length 265 m; draft 8.8 m.

Type: Ship (hazmat cat A). MMSI: 356205000.

Date/timePositionNaut miles runAvg speedWind from/ knotsBaromVisibWave heightAir tempDewpointWater temp
2018-Apr-20 04:57N 32°08' W 081°08'0 0.0
2018-Apr-20 04:27N 32°08' W 081°08'0 0.0
2018-Apr-20 03:57N 32°08' W 081°08'0 0.0
2018-Apr-20 03:27N 32°08' W 081°08'0 0.0
2018-Apr-20 03:00N 32°08' W 081°08'1 1.7
2018-Apr-20 02:30N 32°07' W 081°08'3 6.5
2018-Apr-20 02:00N 32°05' W 081°05'4 8.3
2018-Apr-20 01:30N 32°06' W 081°00'612.4
2018-Apr-20 01:00N 32°02' W 080°54'714.1
2018-Apr-20 00:30N 31°59' W 080°47'612.3
2018-Apr-19 23:59N 31°57' W 080°40'4 9.2
2018-Apr-19 23:31N 31°57' W 080°35'5 9.2
2018-Apr-19 23:00N 31°58' W 080°29'1 1.2
2018-Apr-19 22:11N 31°58' W 080°28'0 0.9
2018-Apr-19 21:57N 31°58' W 080°28'0 0.9
2018-Apr-19 21:27N 31°57' W 080°29'1 1.4
2018-Apr-19 21:01N 31°58' W 080°29'1 2.6
2018-Apr-19 20:30N 31°59' W 080°28'0 0.1
2018-Apr-19 19:59N 31°59' W 080°28'0 0.0
2018-Apr-19 19:29N 31°59' W 080°28'0 0.0
2018-Apr-19 18:59N 31°59' W 080°28'0 0.0
2018-Apr-19 18:29N 31°59' W 080°28'0 0.0
2018-Apr-19 17:53N 31°59' W 080°28'0 0.0
2018-Apr-19 17:23N 31°59' W 080°28'0 0.0
2018-Apr-19 16:59N 31°59' W 080°28'0 0.0
2018-Apr-19 16:29N 31°59' W 080°28'0 0.0
2018-Apr-19 15:11N 31°59' W 080°28'0 0.0
2018-Apr-19 14:59N 31°59' W 080°28'0 0.0
2018-Apr-19 14:23N 31°59' W 080°28'0 0.0
2018-Apr-19 13:59N 31°59' W 080°28'0 0.0
2018-Apr-19 13:23N 31°59' W 080°28'0 0.0
2018-Apr-19 12:53N 31°59' W 080°28'0 0.0
2018-Apr-19 10:53N 31°59' W 080°28'0 0.0
2018-Apr-19 10:17N 31°59' W 080°28'0 0.0
2018-Apr-19 09:53N 31°59' W 080°28'0 0.0
2018-Apr-19 09:29N 31°59' W 080°28'0 0.0
2018-Apr-19 08:47N 31°59' W 080°28'0 0.0
2018-Apr-19 08:29N 31°59' W 080°28'0 0.0
2018-Apr-19 06:47N 31°59' W 080°28'0 0.0
2018-Apr-19 06:29N 31°59' W 080°28'0 0.0
2018-Apr-19 05:59N 31°59' W 080°28'0 0.0
2018-Apr-19 05:29N 31°59' W 080°28'0 0.0
2018-Apr-19 04:53N 31°59' W 080°28'0 0.0
2018-Apr-19 04:29N 31°59' W 080°28'0 0.0
2018-Apr-19 03:59N 31°59' W 080°28'0 0.0
2018-Apr-19 03:29N 31°59' W 080°28'0 0.0
2018-Apr-19 02:47N 31°59' W 080°28'0 0.0
2018-Apr-19 02:23N 31°59' W 080°28'0 0.0
2018-Apr-19 01:59N 31°59' W 080°28'0 0.0
2018-Apr-19 01:29N 31°59' W 080°28'0 0.0
2018-Apr-19 00:53N 31°59' W 080°29'0 0.0
2018-Apr-19 00:29N 31°59' W 080°29'0 0.0
2018-Apr-18 23:53N 31°59' W 080°29'0 0.0
2018-Apr-18 23:17N 31°59' W 080°29'0 0.0
2018-Apr-18 22:53N 31°59' W 080°29'0 0.0
2018-Apr-18 22:29N 31°59' W 080°29'0 0.1
2018-Apr-18 21:59N 31°59' W 080°29'2 3.9
2018-Apr-18 21:30N 31°58' W 080°26'5 9.3
2018-Apr-18 21:00N 31°54' W 080°25'612.2
2018-Apr-18 20:30N 31°48' W 080°24'611.7
2018-Apr-18 20:00N 31°42' W 080°23'0 1.0
2018-Apr-18 19:30N 31°42' W 080°23'1 1.1
2018-Apr-18 19:00N 31°42' W 080°24'1 1.2
2018-Apr-18 18:27N 31°42' W 080°24'1 1.4
2018-Apr-18 18:00N 31°42' W 080°25'1 1.5
2018-Apr-18 17:30N 31°41' W 080°26'1 1.5
2018-Apr-18 17:00N 31°41' W 080°27'1 1.5
2018-Apr-18 16:18N 31°41' W 080°28'0 1.5
2018-Apr-18 16:00N 31°41' W 080°29'1 1.4
2018-Apr-18 15:30N 31°41' W 080°29'1 1.3
2018-Apr-18 15:00N 31°41' W 080°30'1 1.2
2018-Apr-18 14:30N 31°40' W 080°31'1 1.0
2018-Apr-18 13:53N 31°40' W 080°31'1 1.0
2018-Apr-18 13:15N 31°39' W 080°32'2 5.0
2018-Apr-18 12:56N 31°38' W 080°31'4 8.5
2018-Apr-18 12:30N 31°34' W 080°32'5 8.5
2018-Apr-18 11:55N 31°29' W 080°32'4 9.9
2018-Apr-18 11:30N 31°25' W 080°32'510.1
2018-Apr-18 11:00N 31°20' W 080°31'334 7.3
2018-Apr-16 13:28N 25°51' W 079°27'510.7
2018-Apr-16 13:00N 25°46' W 079°29'510.7
2018-Apr-16 12:30N 25°41' W 079°30'610.7
2018-Apr-16 11:56N 25°35' W 079°30'510.9
2018-Apr-16 11:29N 25°30' W 079°31'55011.4
2018-Apr-14 11:15N 22°48' W 089°07'312.6
2018-Apr-14 10:58N 22°47' W 089°11'612.5
2018-Apr-14 10:30N 22°47' W 089°17'712.4
2018-Apr-14 09:59N 22°46' W 089°24'612.2
2018-Apr-14 09:30N 22°45' W 089°30'912.2
2018-Apr-14 08:48N 22°44' W 089°39'512.6
2018-Apr-14 08:22N 22°43' W 089°45'512.6
2018-Apr-14 08:00N 22°42' W 089°50'8512.2
2018-Apr-14 00:59N 22°04' W 091°13'612.4
2018-Apr-14 00:30N 22°01' W 091°18'612.3
2018-Apr-14 00:01N 21°58' W 091°24'612.3
2018-Apr-13 23:30N 21°55' W 091°29'612.3
2018-Apr-13 23:00N 21°51' W 091°35'1112.5
2018-Apr-13 22:07N 21°46' W 091°45'212.6
2018-Apr-13 21:59N 21°45' W 091°47'27212.5
2018-Apr-13 00:12N 19°12' W 095°47'313.3
2018-Apr-13 00:00N 19°12' W 095°49'713.1
2018-Apr-12 23:30N 19°12' W 095°57'612.8
2018-Apr-12 23:00N 19°11' W 096°03'5 9.3
2018-Apr-12 22:30N 19°12' W 096°08'0 0.9
2018-Apr-12 22:00N 19°13' W 096°08'0 0.0
2018-Apr-12 21:30N 19°13' W 096°08'0 0.0
2018-Apr-12 21:00N 19°13' W 096°08'0 0.0
2018-Apr-12 20:30N 19°13' W 096°08'0 0.0
2018-Apr-12 20:00N 19°13' W 096°08'0 0.0
2018-Apr-12 19:30N 19°13' W 096°08'0 0.0
2018-Apr-12 19:00N 19°13' W 096°08'0 0.0
2018-Apr-12 18:30N 19°13' W 096°08'0 0.0
2018-Apr-12 18:00N 19°13' W 096°08'0 0.0
2018-Apr-12 17:30N 19°13' W 096°08'0 0.0
2018-Apr-12 16:56N 19°13' W 096°08'0 0.0
2018-Apr-12 16:30N 19°13' W 096°08'0 0.0
2018-Apr-12 15:54N 19°13' W 096°08'0 0.0
2018-Apr-12 15:30N 19°13' W 096°08'0 0.0
2018-Apr-12 15:00N 19°13' W 096°08'0 0.0
2018-Apr-12 14:30N 19°13' W 096°08'0 0.0
2018-Apr-12 14:00N 19°13' W 096°08'0 0.0
2018-Apr-12 13:30N 19°13' W 096°08'0 0.0
2018-Apr-12 12:57N 19°13' W 096°08'0 0.0
2018-Apr-12 12:30N 19°13' W 096°08'2 3.7
2018-Apr-12 12:00N 19°12' W 096°06'4 8.7
2018-Apr-12 11:30N 19°12' W 096°02'1 2.3
2018-Apr-12 11:00N 19°13' W 096°01'3 6.8
2018-Apr-12 10:30N 19°17' W 095°60'510.2
2018-Apr-12 10:00N 19°22' W 095°60'510.4
2018-Apr-12 09:30N 19°27' W 095°60'510.2
2018-Apr-12 09:00N 19°32' W 096°01'610.4
2018-Apr-12 08:25N 19°38' W 096°04'510.3
2018-Apr-12 07:58N 19°42' W 096°06'  

Dump ship's entire track history